createdAt,value
2023-02-09T00:01:25.899Z,12.60
2023-02-09T00:03:55.696Z,11.38
2023-02-09T00:06:25.059Z,13.30
2023-02-09T00:08:53.481Z,11.88
2023-02-09T00:11:43.915Z,10.27
2023-02-09T00:14:14.233Z,10.77
2023-02-09T00:16:44.952Z,10.90
2023-02-09T00:19:15.208Z,11.65
2023-02-09T00:21:43.604Z,13.57
2023-02-09T00:24:12.398Z,14.82
2023-02-09T00:26:41.489Z,11.88
2023-02-09T00:29:11.954Z,15.27
2023-02-09T00:31:41.921Z,12.80
2023-02-09T00:34:10.281Z,15.52
2023-02-09T00:36:38.720Z,11.05
2023-02-09T00:39:07.168Z,13.85
2023-02-09T00:41:52.815Z,12.68
2023-02-09T00:44:21.362Z,14.55
2023-02-09T00:46:52.989Z,11.80
2023-02-09T00:49:22.056Z,12.95
2023-02-09T00:51:51.791Z,14.38
2023-02-09T00:54:21.224Z,12.80
2023-02-09T00:56:50.879Z,14.82
2023-02-09T00:59:20.240Z,13.68
2023-02-09T01:01:51.216Z,12.38
2023-02-09T01:04:21.011Z,13.73
2023-02-09T01:06:50.450Z,12.40
2023-02-09T01:09:20.779Z,15.45
2023-02-09T01:11:50.274Z,14.13
2023-02-09T01:14:19.753Z,13.00
2023-02-09T01:16:49.943Z,15.45
2023-02-09T01:19:21.326Z,12.20
2023-02-09T01:21:51.205Z,11.45
2023-02-09T01:24:20.895Z,13.35
2023-02-09T01:26:50.728Z,12.20
2023-02-09T01:29:22.298Z,14.05
2023-02-09T01:31:52.192Z,15.75
2023-02-09T01:34:23.360Z,11.68
2023-02-09T01:36:52.919Z,11.90
2023-02-09T01:39:22.462Z,11.23
2023-02-09T01:41:51.826Z,10.23
2023-02-09T01:44:57.726Z,11.95
2023-02-09T01:47:27.275Z,11.55
2023-02-09T01:49:58.060Z,11.45
2023-02-09T01:52:31.541Z,10.90
2023-02-09T01:57:38.114Z,10.70
2023-02-09T02:00:12.182Z,12.35
2023-02-09T02:02:43.807Z,9.25
2023-02-09T02:05:14.777Z,11.63
2023-02-09T02:07:49.238Z,9.23
2023-02-09T02:10:17.956Z,9.50
2023-02-09T02:12:48.293Z,9.60
2023-02-09T02:15:18.813Z,8.32
2023-02-09T02:18:09.104Z,13.15
2023-02-09T02:21:33.650Z,12.38
2023-02-09T02:24:31.833Z,10.73
2023-02-09T02:27:03.831Z,10.45
2023-02-09T02:30:04.429Z,9.65
2023-02-09T02:32:45.029Z,10.60
2023-02-09T02:35:27.685Z,7.95
2023-02-09T02:38:05.151Z,8.50
2023-02-09T02:40:45.778Z,7.90
2023-02-09T02:43:25.584Z,10.30
2023-02-09T02:46:00.829Z,10.00
2023-02-09T02:48:39.866Z,9.20
2023-02-09T02:51:13.930Z,9.75
2023-02-09T02:53:49.242Z,10.23
2023-02-09T02:56:24.293Z,7.30
2023-02-09T02:58:56.906Z,8.95
2023-02-09T03:01:31.912Z,6.37
2023-02-09T03:04:03.688Z,8.20
2023-02-09T03:06:35.899Z,8.57
2023-02-09T03:09:05.982Z,8.55
2023-02-09T03:11:40.668Z,8.20
2023-02-09T03:14:32.553Z,10.18
2023-02-09T03:17:14.771Z,8.57
2023-02-09T03:19:51.502Z,8.70
2023-02-09T03:22:30.184Z,8.73
2023-02-09T03:25:04.798Z,12.43
2023-02-09T03:27:38.946Z,8.70
2023-02-09T03:30:12.306Z,9.32
2023-02-09T03:32:42.982Z,8.98
2023-02-09T03:35:17.184Z,9.50
2023-02-09T03:37:46.992Z,9.23
2023-02-09T03:40:16.579Z,8.52
2023-02-09T03:42:46.450Z,10.32
2023-02-09T03:45:15.845Z,8.27
2023-02-09T03:47:45.412Z,8.25
2023-02-09T03:50:16.623Z,8.50
2023-02-09T03:52:45.430Z,9.27
2023-02-09T03:55:15.382Z,7.75
2023-02-09T03:57:44.754Z,8.07
2023-02-09T04:00:15.823Z,8.13
2023-02-09T04:02:46.277Z,8.55
2023-02-09T04:05:17.774Z,9.30
2023-02-09T04:07:46.437Z,7.43
2023-02-09T04:10:15.824Z,8.80
2023-02-09T04:12:45.232Z,8.43
2023-02-09T04:15:15.221Z,9.15
2023-02-09T04:17:44.575Z,8.57
2023-02-09T04:20:14.532Z,8.38
2023-02-09T04:22:45.857Z,8.52
2023-02-09T04:25:15.283Z,10.25
2023-02-09T04:27:44.749Z,16.63
2023-02-09T04:30:15.786Z,17.17
2023-02-09T04:32:45.146Z,14.07
2023-02-09T04:35:15.295Z,12.65
2023-02-09T04:37:45.059Z,15.05
2023-02-09T04:40:13.861Z,13.70
2023-02-09T04:42:42.332Z,13.38
2023-02-09T04:45:12.346Z,10.52
2023-02-09T04:47:40.730Z,11.40
2023-02-09T04:50:09.620Z,10.43
2023-02-09T04:52:37.901Z,9.07
2023-02-09T04:55:09.344Z,8.73
2023-02-09T04:57:54.785Z,8.30
2023-02-09T05:00:23.409Z,8.55
2023-02-09T05:02:51.734Z,7.88
2023-02-09T05:05:20.923Z,10.57
2023-02-09T05:07:49.335Z,9.50
2023-02-09T05:10:19.379Z,9.75
2023-02-09T05:12:47.765Z,8.93
2023-02-09T05:15:16.407Z,10.18
2023-02-09T05:17:46.127Z,21.42
2023-02-09T05:20:14.562Z,8.38
2023-02-09T05:22:42.937Z,7.85
2023-02-09T05:25:13.124Z,8.98
2023-02-09T05:27:42.856Z,8.23
2023-02-09T05:30:12.602Z,7.65
2023-02-09T05:32:42.768Z,7.97
2023-02-09T05:35:11.216Z,7.75
2023-02-09T05:37:40.429Z,8.05
2023-02-09T05:40:10.296Z,8.25
2023-02-09T05:42:38.726Z,7.00
2023-02-09T05:45:10.917Z,8.15
2023-02-09T05:47:39.271Z,9.68
2023-02-09T05:50:07.851Z,9.02
2023-02-09T05:52:36.293Z,7.57
2023-02-09T05:55:04.937Z,10.05
2023-02-09T05:57:33.497Z,7.43
2023-02-09T06:00:01.836Z,8.40
2023-02-09T06:02:31.833Z,8.77
2023-02-09T06:05:00.367Z,8.27
2023-02-09T06:07:30.330Z,8.40
2023-02-09T06:09:58.672Z,7.80
2023-02-09T06:12:27.350Z,8.45
2023-02-09T06:14:55.663Z,7.70
2023-02-09T06:17:25.994Z,9.07
2023-02-09T06:19:55.794Z,8.35
2023-02-09T06:22:24.209Z,7.82
2023-02-09T06:24:52.475Z,8.80
2023-02-09T06:27:23.362Z,7.53
2023-02-09T06:29:51.704Z,11.57
2023-02-09T06:32:20.125Z,12.85
2023-02-09T06:34:48.583Z,17.38
2023-02-09T06:37:18.340Z,14.13
2023-02-09T06:39:47.638Z,9.85
2023-02-09T06:42:17.356Z,11.35
2023-02-09T06:44:46.882Z,13.02
2023-02-09T06:47:15.309Z,10.70
2023-02-09T06:49:43.637Z,11.25
2023-02-09T06:52:12.147Z,9.25
2023-02-09T06:54:45.096Z,8.07
2023-02-09T06:57:13.556Z,10.55
2023-02-09T06:59:42.888Z,11.50
2023-02-09T07:02:11.872Z,9.85
2023-02-09T07:04:41.238Z,10.80
2023-02-09T07:07:09.724Z,12.23
2023-02-09T07:09:38.133Z,13.57
2023-02-09T07:12:08.840Z,12.15
2023-02-09T07:14:37.218Z,11.75
2023-02-09T07:17:05.536Z,8.98
2023-02-09T07:19:33.984Z,8.25
2023-02-09T07:22:03.407Z,9.73
2023-02-09T07:24:32.033Z,8.85
2023-02-09T07:27:01.263Z,10.23
2023-02-09T07:29:34.422Z,11.10
2023-02-09T07:32:02.945Z,9.18
2023-02-09T07:34:32.447Z,9.32
2023-02-09T07:37:01.875Z,10.02
2023-02-09T07:39:31.545Z,9.85
2023-02-09T07:42:00.328Z,9.02
2023-02-09T07:44:31.447Z,10.15
2023-02-09T07:47:00.897Z,9.07
2023-02-09T07:49:30.559Z,11.88
2023-02-09T07:52:01.245Z,13.43
2023-02-09T07:54:29.920Z,11.23
2023-02-09T07:56:59.791Z,8.55
2023-02-09T07:59:29.328Z,10.27
2023-02-09T08:02:02.528Z,9.73
2023-02-09T08:04:32.328Z,8.38
2023-02-09T08:07:01.774Z,9.57
2023-02-09T08:09:30.552Z,6.90
2023-02-09T08:12:03.343Z,6.55
2023-02-09T08:14:41.052Z,7.63
2023-02-09T08:17:24.519Z,8.40
2023-02-09T08:19:59.705Z,7.85
2023-02-09T08:22:32.012Z,6.95
2023-02-09T08:25:03.892Z,7.03
2023-02-09T08:27:34.942Z,6.63
2023-02-09T08:30:05.260Z,7.55
2023-02-09T08:32:36.720Z,7.70
2023-02-09T08:35:05.981Z,8.77
2023-02-09T08:37:35.134Z,8.63
2023-02-09T08:40:03.854Z,6.75
2023-02-09T08:42:33.625Z,7.82
2023-02-09T08:45:02.377Z,8.18
2023-02-09T08:47:31.962Z,9.52
2023-02-09T08:50:01.716Z,6.63
2023-02-09T08:52:31.235Z,12.27
2023-02-09T08:54:59.553Z,13.70
2023-02-09T08:57:42.802Z,26.10
2023-02-09T09:00:14.795Z,19.52
2023-02-09T09:02:43.340Z,14.10
2023-02-09T09:05:14.324Z,7.35
2023-02-09T09:07:42.840Z,10.05
2023-02-09T09:10:12.616Z,9.27
2023-02-09T09:12:41.534Z,7.45
2023-02-09T09:15:11.878Z,7.53
2023-02-09T09:17:42.533Z,6.75
2023-02-09T09:20:13.869Z,9.90
2023-02-09T09:22:43.844Z,7.85
2023-02-09T09:25:13.976Z,7.22
2023-02-09T09:27:43.600Z,7.55
2023-02-09T09:30:14.199Z,8.18
2023-02-09T09:32:44.972Z,7.20
2023-02-09T09:35:14.804Z,6.45
2023-02-09T09:37:44.129Z,7.90
2023-02-09T09:40:19.539Z,8.20
2023-02-09T09:42:53.812Z,8.13
2023-02-09T09:45:27.309Z,7.10
2023-02-09T09:47:58.080Z,8.30
2023-02-09T09:50:34.057Z,8.02
2023-02-09T09:53:08.178Z,6.85
2023-02-09T09:55:39.372Z,7.80
2023-02-09T09:58:10.858Z,9.15
2023-02-09T10:00:43.370Z,10.00
2023-02-09T10:03:17.032Z,9.68
2023-02-09T10:08:25.233Z,7.63
2023-02-09T10:11:00.600Z,10.10
2023-02-09T10:13:36.170Z,7.55
2023-02-09T10:16:12.328Z,9.13
2023-02-09T10:18:41.076Z,8.77
2023-02-09T10:21:14.360Z,8.60
2023-02-09T10:23:46.884Z,10.65
2023-02-09T10:26:26.527Z,10.30
2023-02-09T10:28:57.224Z,8.40
2023-02-09T10:31:30.668Z,7.90
2023-02-09T10:34:03.817Z,10.70
2023-02-09T10:36:37.901Z,9.82
2023-02-09T10:39:15.696Z,8.63
2023-02-09T10:41:47.269Z,8.82
2023-02-09T10:44:21.361Z,7.80
2023-02-09T10:46:51.438Z,8.57
2023-02-09T10:49:38.031Z,7.60
2023-02-09T10:52:19.598Z,8.80
2023-02-09T10:54:51.714Z,10.38
2023-02-09T10:57:28.395Z,7.95
2023-02-09T10:59:59.347Z,10.32
2023-02-09T11:02:52.747Z,19.23
2023-02-09T11:05:41.926Z,8.75
2023-02-09T11:08:19.178Z,7.63
2023-02-09T11:11:04.150Z,11.02
2023-02-09T11:13:35.553Z,9.82
2023-02-09T11:16:22.332Z,12.23
2023-02-09T11:18:59.326Z,8.57
2023-02-09T11:21:49.927Z,8.82
2023-02-09T11:24:27.602Z,17.55
2023-02-09T11:27:02.946Z,16.58
2023-02-09T11:29:38.770Z,15.68
2023-02-09T11:32:15.561Z,11.57
2023-02-09T11:35:05.084Z,7.65
2023-02-09T11:37:44.535Z,8.40
2023-02-09T11:40:29.371Z,6.28
2023-02-09T11:43:07.970Z,7.88
2023-02-09T11:45:45.202Z,9.80
2023-02-09T11:48:20.294Z,8.43
2023-02-09T11:50:59.075Z,11.32
2023-02-09T11:53:37.580Z,8.52
2023-02-09T11:56:10.819Z,6.13
2023-02-09T11:58:47.975Z,7.72
2023-02-09T12:01:32.265Z,9.32
2023-02-09T12:04:16.307Z,7.65
2023-02-09T12:06:47.940Z,10.07
2023-02-09T12:09:38.848Z,6.28
2023-02-09T12:12:18.790Z,6.63
2023-02-09T12:14:57.201Z,6.10
2023-02-09T12:17:33.312Z,5.43
2023-02-09T12:20:03.426Z,7.68
2023-02-09T12:22:53.655Z,9.02
2023-02-09T12:25:35.612Z,7.10
2023-02-09T12:28:18.997Z,8.75
2023-02-09T12:31:03.992Z,7.47
2023-02-09T12:33:35.321Z,6.50
2023-02-09T12:36:06.967Z,11.85
2023-02-09T12:39:07.618Z,6.15
2023-02-09T12:42:28.874Z,7.50
2023-02-09T12:45:00.772Z,5.85
2023-02-09T12:47:49.652Z,6.90
2023-02-09T12:50:29.212Z,5.35
2023-02-09T12:53:32.125Z,9.95
2023-02-09T12:56:04.059Z,5.47
2023-02-09T12:58:42.501Z,5.80
2023-02-09T13:01:14.376Z,7.20
2023-02-09T13:03:47.126Z,6.25
2023-02-09T13:06:29.047Z,5.63
2023-02-09T13:09:01.715Z,6.57
2023-02-09T13:11:39.147Z,7.50
2023-02-09T13:14:13.712Z,8.45
2023-02-09T13:17:27.054Z,6.50
2023-02-09T13:20:23.640Z,7.35
2023-02-09T13:23:16.782Z,12.30
2023-02-09T13:25:47.884Z,8.98
2023-02-09T13:28:19.477Z,8.93
2023-02-09T13:30:49.075Z,6.50
2023-02-09T13:33:34.800Z,7.53
2023-02-09T13:36:24.291Z,7.45
2023-02-09T13:38:54.972Z,8.98
2023-02-09T13:41:38.620Z,7.22
2023-02-09T13:44:23.057Z,7.20
2023-02-09T13:46:58.130Z,8.55
2023-02-09T13:49:31.572Z,9.27
2023-02-09T13:52:17.075Z,6.65
2023-02-09T13:54:46.620Z,7.95
2023-02-09T13:57:33.210Z,7.88
2023-02-09T14:00:10.966Z,11.07
2023-02-09T14:02:40.224Z,6.85
2023-02-09T14:05:11.661Z,9.23
2023-02-09T14:07:41.787Z,11.75
2023-02-09T14:10:17.112Z,8.82
2023-02-09T14:12:52.552Z,8.70
2023-02-09T14:15:45.168Z,9.07
2023-02-09T14:18:35.619Z,9.93
2023-02-09T14:21:17.936Z,9.98
2023-02-09T14:23:47.462Z,10.32
2023-02-09T14:26:27.193Z,10.95
2023-02-09T14:29:06.069Z,7.55
2023-02-09T14:31:36.674Z,7.88
2023-02-09T14:34:05.120Z,7.75
2023-02-09T14:36:39.079Z,8.02
2023-02-09T14:39:17.097Z,8.20
2023-02-09T14:41:58.292Z,7.07
2023-02-09T14:44:28.120Z,7.30
2023-02-09T14:46:58.729Z,8.57
2023-02-09T14:49:27.952Z,10.68
2023-02-09T14:52:08.087Z,9.10
2023-02-09T14:54:45.325Z,8.35
2023-02-09T14:57:14.607Z,8.70
2023-02-09T14:59:45.286Z,7.85
2023-02-09T15:02:19.330Z,8.80
2023-02-09T15:04:50.348Z,8.93
2023-02-09T15:07:24.138Z,11.30
2023-02-09T15:09:52.852Z,13.45
2023-02-09T15:12:26.212Z,10.02
2023-02-09T15:14:57.042Z,11.43
2023-02-09T15:17:28.069Z,7.80
2023-02-09T15:19:57.554Z,8.02
2023-02-09T15:22:27.296Z,6.95
2023-02-09T15:24:55.604Z,9.02
2023-02-09T15:27:29.350Z,7.88
2023-02-09T15:30:00.615Z,5.97
2023-02-09T15:32:30.759Z,14.55
2023-02-09T15:34:59.019Z,9.85
2023-02-09T15:37:33.168Z,8.57
2023-02-09T15:40:15.068Z,10.00
2023-02-09T15:43:06.898Z,12.38
2023-02-09T15:45:52.741Z,10.40
2023-02-09T15:48:21.251Z,9.07
2023-02-09T15:50:50.890Z,13.57
2023-02-09T15:53:21.548Z,9.15
2023-02-09T15:55:50.147Z,15.23
2023-02-09T15:58:22.161Z,43.22
2023-02-09T16:00:51.636Z,25.77
2023-02-09T16:03:22.965Z,20.20
2023-02-09T16:05:54.968Z,45.35
2023-02-09T16:08:27.642Z,58.58
2023-02-09T16:10:56.240Z,13.70
2023-02-09T16:13:25.059Z,43.05
2023-02-09T16:15:58.276Z,11.30
2023-02-09T16:18:32.892Z,14.63
2023-02-09T16:21:02.674Z,11.07
2023-02-09T16:23:32.880Z,10.63
2023-02-09T16:26:01.864Z,11.45
2023-02-09T16:28:30.444Z,13.63
2023-02-09T16:30:59.982Z,10.43
2023-02-09T16:33:29.890Z,10.85
2023-02-09T16:36:00.257Z,11.15
2023-02-09T16:38:31.264Z,9.27
2023-02-09T16:41:01.051Z,9.70
2023-02-09T16:43:29.368Z,10.48
2023-02-09T16:46:03.634Z,10.05
2023-02-09T16:48:35.698Z,11.63
2023-02-09T16:51:04.930Z,11.32
2023-02-09T16:53:38.157Z,12.32
2023-02-09T16:56:15.926Z,10.13
2023-02-09T16:58:45.268Z,12.88
2023-02-09T17:01:17.225Z,12.02
2023-02-09T17:03:50.071Z,14.77
2023-02-09T17:06:21.756Z,25.75
2023-02-09T17:08:51.917Z,16.00
2023-02-09T17:11:23.451Z,19.33
2023-02-09T17:13:52.090Z,17.23
2023-02-09T17:16:22.976Z,15.57
2023-02-09T17:18:54.396Z,18.83
2023-02-09T17:21:25.437Z,16.08
2023-02-09T17:23:58.003Z,13.43
2023-02-09T17:26:29.342Z,10.25
2023-02-09T17:28:58.082Z,11.25
2023-02-09T17:31:28.906Z,9.70
2023-02-09T17:33:59.073Z,10.82
2023-02-09T17:36:29.594Z,12.23
2023-02-09T17:38:59.596Z,10.93
2023-02-09T17:41:34.567Z,11.52
2023-02-09T17:44:24.169Z,12.68
2023-02-09T17:49:28.042Z,12.65
2023-02-09T17:51:56.910Z,14.48
2023-02-09T17:54:26.386Z,14.85
2023-02-09T17:56:57.858Z,11.80
2023-02-09T17:59:26.854Z,11.15
2023-02-09T18:01:57.025Z,11.43
2023-02-09T18:04:29.064Z,9.77
2023-02-09T18:07:02.912Z,9.48
2023-02-09T18:09:33.003Z,10.82
2023-02-09T18:12:05.788Z,10.63
2023-02-09T18:14:36.850Z,13.77
2023-02-09T18:17:06.961Z,11.35
2023-02-09T18:19:36.022Z,10.70
2023-02-09T18:22:05.662Z,11.07
2023-02-09T18:24:35.800Z,17.50
2023-02-09T18:27:06.880Z,12.65
2023-02-09T18:29:37.512Z,12.00
2023-02-09T18:32:06.946Z,13.63
2023-02-09T18:34:38.060Z,13.88
2023-02-09T18:37:06.789Z,10.23
2023-02-09T18:39:36.893Z,13.85
2023-02-09T18:42:06.792Z,13.00
2023-02-09T18:44:35.354Z,14.82
2023-02-09T18:47:04.222Z,17.52
2023-02-09T18:49:32.744Z,13.20
2023-02-09T18:52:02.370Z,11.10
2023-02-09T18:54:32.242Z,10.38
2023-02-09T18:57:00.960Z,9.88
2023-02-09T18:59:33.712Z,11.77
2023-02-09T19:02:02.775Z,13.00
2023-02-09T19:04:32.158Z,12.45
2023-02-09T19:07:02.130Z,31.40
2023-02-09T19:09:31.431Z,15.68
2023-02-09T19:12:00.118Z,22.02
2023-02-09T19:14:42.328Z,13.75
2023-02-09T19:17:16.023Z,11.77
2023-02-09T19:19:45.116Z,11.23
2023-02-09T19:22:16.994Z,14.27
2023-02-09T19:24:48.880Z,16.50
2023-02-09T19:27:19.027Z,13.00
2023-02-09T19:29:47.813Z,12.45
2023-02-09T19:32:18.335Z,11.30
2023-02-09T19:34:46.935Z,12.38
2023-02-09T19:37:16.483Z,11.85
2023-02-09T19:39:53.291Z,10.85
2023-02-09T19:42:22.393Z,10.55
2023-02-09T19:44:52.093Z,12.07
2023-02-09T19:47:25.963Z,13.35
2023-02-09T19:49:55.804Z,14.55
2023-02-09T19:52:26.207Z,12.35
2023-02-09T19:54:57.360Z,11.00
2023-02-09T19:57:26.256Z,10.93
2023-02-09T19:59:55.090Z,13.02
2023-02-09T20:02:24.930Z,14.07
2023-02-09T20:04:54.379Z,13.38
2023-02-09T20:07:23.950Z,14.20
2023-02-09T20:09:53.803Z,19.02
2023-02-09T20:12:24.114Z,11.30
2023-02-09T20:14:55.811Z,13.43
2023-02-09T20:17:28.272Z,13.65
2023-02-09T20:19:57.821Z,15.27
2023-02-09T20:22:27.480Z,13.65
2023-02-09T20:24:55.800Z,12.18
2023-02-09T20:27:24.273Z,16.95
2023-02-09T20:29:56.100Z,14.18
2023-02-09T20:32:25.951Z,13.15
2023-02-09T20:34:54.258Z,15.48
2023-02-09T20:37:22.740Z,15.18
2023-02-09T20:39:51.120Z,14.95
2023-02-09T20:42:36.928Z,14.88
2023-02-09T20:45:23.325Z,16.05
2023-02-09T20:47:53.201Z,16.58
2023-02-09T20:50:21.525Z,14.48
2023-02-09T20:52:49.862Z,17.05
2023-02-09T20:55:18.376Z,14.27
2023-02-09T20:57:48.070Z,15.57
2023-02-09T21:00:18.070Z,16.08
2023-02-09T21:02:46.475Z,15.40
2023-02-09T21:05:16.978Z,15.15
2023-02-09T21:07:45.478Z,15.13
2023-02-09T21:10:15.899Z,17.73
2023-02-09T21:12:46.659Z,17.45
2023-02-09T21:15:15.214Z,21.50
2023-02-09T21:17:47.976Z,18.13
2023-02-09T21:20:18.807Z,16.75
2023-02-09T21:22:48.627Z,16.02
2023-02-09T21:25:18.156Z,16.60
2023-02-09T21:27:46.918Z,15.52
2023-02-09T21:30:16.630Z,14.10
2023-02-09T21:32:46.496Z,15.52
2023-02-09T21:35:14.927Z,15.93
2023-02-09T21:37:46.098Z,17.13
2023-02-09T21:40:16.272Z,14.77
2023-02-09T21:42:44.770Z,15.73
2023-02-09T21:45:13.332Z,12.07
2023-02-09T21:47:41.892Z,18.83
2023-02-09T21:50:13.184Z,17.30
2023-02-09T21:52:41.624Z,25.42
2023-02-09T21:55:13.595Z,18.42
2023-02-09T21:57:42.121Z,16.48
2023-02-09T22:00:12.600Z,16.83
2023-02-09T22:02:41.401Z,13.88
2023-02-09T22:05:10.277Z,15.88
2023-02-09T22:07:38.709Z,15.82
2023-02-09T22:10:09.454Z,13.63
2023-02-09T22:12:40.056Z,15.15
2023-02-09T22:15:08.994Z,16.92
2023-02-09T22:17:38.389Z,15.30
2023-02-09T22:20:09.888Z,18.20
2023-02-09T22:22:39.949Z,17.75
2023-02-09T22:25:09.381Z,18.42
2023-02-09T22:27:39.210Z,26.92
2023-02-09T22:30:08.165Z,29.08
2023-02-09T22:32:36.515Z,39.80
2023-02-09T22:35:04.843Z,21.25
2023-02-09T22:37:34.734Z,23.48
2023-02-09T22:40:03.037Z,22.42
2023-02-09T22:42:31.523Z,18.70
2023-02-09T22:45:01.205Z,18.67
2023-02-09T22:47:30.653Z,17.02
2023-02-09T22:49:59.085Z,16.20
2023-02-09T22:52:27.812Z,16.83
2023-02-09T22:54:57.970Z,17.60
2023-02-09T22:57:27.322Z,16.13
2023-02-09T22:59:55.708Z,16.17
2023-02-09T23:02:26.581Z,16.52
2023-02-09T23:04:56.222Z,17.17
2023-02-09T23:07:24.566Z,18.73
2023-02-09T23:09:52.926Z,18.48
2023-02-09T23:12:21.515Z,16.27
2023-02-09T23:14:49.854Z,17.02
2023-02-09T23:17:18.321Z,18.13
2023-02-09T23:19:49.862Z,17.40
2023-02-09T23:22:19.762Z,17.95
2023-02-09T23:24:48.023Z,18.17
2023-02-09T23:27:16.403Z,19.52
2023-02-09T23:29:45.045Z,17.95
2023-02-09T23:32:13.495Z,19.73
2023-02-09T23:34:41.784Z,23.38
2023-02-09T23:37:18.620Z,17.80
2023-02-09T23:39:57.867Z,17.90
2023-02-09T23:42:27.832Z,17.15
2023-02-09T23:44:57.533Z,16.75
2023-02-09T23:47:25.999Z,16.05
2023-02-09T23:49:54.485Z,15.50
2023-02-09T23:52:24.276Z,17.73
2023-02-09T23:54:52.574Z,16.55
2023-02-09T23:57:24.301Z,19.23
2023-02-09T23:59:52.656Z,20.38
